Terminal Aerodrome Forecast
Issued by NWS Wichita, KS

Home | Current Version | Previous Version | Text Only | Print | Product List | Glossary On
Versions: 1 2 3 4 5 6 7 8 9 10 11 12 13 14 15 16 17 18
000
FTUS43 KICT 070620 AAA
TAFICT
TAF AMD
KICT 070620Z 0706/0806 03011G20KT 5SM -SHRA BR SCT005 OVC010
      TEMPO 0706/0710 1 1/2SM +RA BR OVC005
     FM071200 03012KT P6SM SCT015 OVC050
     FM071300 05012KT P6SM BKN050
     FM072100 05012KT P6SM VCSH BKN050=

USA.gov is the U.S. government's official web portal to all federal, state and local government web resources and services.